createdAt,value
2023-04-15T00:01:44.509Z,102059.40
2023-04-15T00:04:11.388Z,102061.00
2023-04-15T00:06:39.395Z,102052.40
2023-04-15T00:09:07.006Z,102058.80
2023-04-15T00:11:33.496Z,102053.80
2023-04-15T00:14:02.180Z,102054.00
2023-04-15T00:16:28.793Z,102052.20
2023-04-15T00:18:56.244Z,102056.20
2023-04-15T00:21:22.646Z,102055.60
2023-04-15T00:23:52.068Z,102055.60
2023-04-15T00:26:21.683Z,102057.80
2023-04-15T00:28:48.942Z,102056.40
2023-04-15T00:31:17.909Z,102055.60
2023-04-15T00:33:44.855Z,102058.20
2023-04-15T00:36:12.077Z,102061.60
2023-04-15T00:38:44.470Z,102060.40
2023-04-15T00:41:15.380Z,102059.40
2023-04-15T00:43:43.918Z,102055.00
2023-04-15T00:46:15.458Z,102056.80
2023-04-15T00:48:44.590Z,102054.80
2023-04-15T00:51:11.204Z,102056.00
2023-04-15T00:53:39.482Z,102054.40
2023-04-15T00:56:08.330Z,102052.00
2023-04-15T00:58:36.696Z,102052.00
2023-04-15T01:01:07.462Z,102050.80
2023-04-15T01:03:34.813Z,102055.40
2023-04-15T01:06:04.158Z,102054.80
2023-04-15T01:08:31.180Z,102056.80
2023-04-15T01:11:03.314Z,102059.00
2023-04-15T01:13:30.623Z,102059.60
2023-04-15T01:15:57.531Z,102059.80
2023-04-15T01:18:24.813Z,102062.20
2023-04-15T01:20:51.453Z,102060.80
2023-04-15T01:23:19.380Z,102062.00
2023-04-15T01:25:46.884Z,102066.20
2023-04-15T01:28:14.528Z,102063.80
2023-04-15T01:30:44.119Z,102068.00
2023-04-15T01:33:10.652Z,102067.60
2023-04-15T01:35:38.602Z,102064.40
2023-04-15T01:38:10.818Z,102064.00
2023-04-15T01:40:37.259Z,102064.60
2023-04-15T01:43:04.601Z,102060.00
2023-04-15T01:45:32.177Z,102057.40
2023-04-15T01:47:58.580Z,102058.80
2023-04-15T01:50:26.583Z,102053.60
2023-04-15T01:52:53.038Z,102058.80
2023-04-15T01:55:20.920Z,102057.20
2023-04-15T01:57:47.318Z,102061.00
2023-04-15T02:00:14.490Z,102065.00
2023-04-15T02:02:41.120Z,102068.80
2023-04-15T02:05:11.635Z,102064.20
2023-04-15T02:07:39.093Z,102068.00
2023-04-15T02:10:05.980Z,102071.60
2023-04-15T02:12:35.429Z,102070.20
2023-04-15T02:15:02.008Z,102073.40
2023-04-15T02:17:28.425Z,102070.00
2023-04-15T02:20:01.041Z,102068.80
2023-04-15T02:22:31.387Z,102073.60
2023-04-15T02:24:57.885Z,102074.20
2023-04-15T02:27:24.545Z,102068.20
2023-04-15T02:29:52.753Z,102072.80
2023-04-15T02:32:21.565Z,102073.20
2023-04-15T02:34:48.313Z,102071.80
2023-04-15T02:37:15.445Z,102069.80
2023-04-15T02:39:44.057Z,102076.80
2023-04-15T02:42:12.247Z,102080.60
2023-04-15T02:44:38.780Z,102078.80
2023-04-15T02:47:06.408Z,102077.80
2023-04-15T02:49:33.163Z,102078.00
2023-04-15T02:52:00.108Z,102081.00
2023-04-15T02:54:30.769Z,102081.00
2023-04-15T02:56:57.572Z,102080.20
2023-04-15T02:59:24.780Z,102088.20
2023-04-15T03:01:51.401Z,102084.60
2023-04-15T03:04:19.814Z,102088.80
2023-04-15T03:06:47.108Z,102092.60
2023-04-15T03:09:13.886Z,102096.20
2023-04-15T03:11:41.459Z,102091.00
2023-04-15T03:14:09.065Z,102097.60
2023-04-15T03:16:35.804Z,102095.60
2023-04-15T03:19:02.906Z,102097.00
2023-04-15T03:21:30.779Z,102101.00
2023-04-15T03:23:57.717Z,102103.80
2023-04-15T03:26:29.955Z,102098.20
2023-04-15T03:28:57.955Z,102096.00
2023-04-15T03:31:26.951Z,102104.20
2023-04-15T03:33:56.510Z,102097.00
2023-04-15T03:36:23.384Z,102099.20
2023-04-15T03:38:50.477Z,102102.20
2023-04-15T03:41:19.927Z,102094.40
2023-04-15T03:43:48.660Z,102099.60
2023-04-15T03:46:15.488Z,102102.00
2023-04-15T03:48:42.375Z,102103.00
2023-04-15T03:51:08.833Z,102099.40
2023-04-15T03:53:36.548Z,102107.00
2023-04-15T03:56:03.706Z,102104.80
2023-04-15T03:58:33.402Z,102103.60
2023-04-15T04:01:05.013Z,102103.60
2023-04-15T04:03:31.655Z,102101.20
2023-04-15T04:06:02.180Z,102108.00
2023-04-15T04:08:28.879Z,102106.20
2023-04-15T04:10:55.827Z,102110.80
2023-04-15T04:13:29.831Z,102111.60
2023-04-15T04:15:57.829Z,102111.60
2023-04-15T04:18:25.155Z,102112.60
2023-04-15T04:20:54.132Z,102113.80
2023-04-15T04:23:20.692Z,102120.80
2023-04-15T04:25:48.304Z,102121.80
2023-04-15T04:28:14.861Z,102121.20
2023-04-15T04:30:43.422Z,102123.00
2023-04-15T04:33:10.511Z,102126.20
2023-04-15T04:35:44.719Z,102129.60
2023-04-15T04:38:14.343Z,102131.80
2023-04-15T04:40:40.979Z,102134.80
2023-04-15T04:43:07.641Z,102136.20
2023-04-15T04:45:34.713Z,102134.60
2023-04-15T04:48:02.115Z,102133.40
2023-04-15T04:50:30.498Z,102138.00
2023-04-15T04:53:05.485Z,102136.60
2023-04-15T04:55:34.042Z,102140.40
2023-04-15T04:58:02.156Z,102142.40
2023-04-15T05:00:30.558Z,102148.80
2023-04-15T05:02:58.641Z,102147.20
2023-04-15T05:05:25.572Z,102150.20
2023-04-15T05:07:52.982Z,102149.00
2023-04-15T05:10:21.790Z,102150.40
2023-04-15T05:12:48.293Z,102153.60
2023-04-15T05:15:14.968Z,102151.80
2023-04-15T05:17:42.787Z,102153.40
2023-04-15T05:20:13.798Z,102156.80
2023-04-15T05:22:41.131Z,102159.00
2023-04-15T05:25:08.161Z,102156.40
2023-04-15T05:27:37.491Z,102156.60
2023-04-15T05:30:07.522Z,102158.00
2023-04-15T05:32:33.989Z,102158.00
2023-04-15T05:35:02.872Z,102162.40
2023-04-15T05:37:29.456Z,102166.80
2023-04-15T05:39:56.502Z,102161.40
2023-04-15T05:42:24.530Z,102160.00
2023-04-15T05:44:51.345Z,102166.60
2023-04-15T05:47:18.041Z,102173.80
2023-04-15T05:49:46.051Z,102171.40
2023-04-15T05:52:12.534Z,102176.00
2023-04-15T05:54:39.076Z,102177.20
2023-04-15T05:57:06.277Z,102173.60
2023-04-15T05:59:33.630Z,102179.60
2023-04-15T06:02:01.112Z,102181.20
2023-04-15T06:04:28.145Z,102185.60
2023-04-15T06:06:54.812Z,102189.20
2023-04-15T06:09:21.758Z,102186.20
2023-04-15T06:11:49.055Z,102189.00
2023-04-15T06:14:15.551Z,102196.00
2023-04-15T06:16:41.997Z,102192.60
2023-04-15T06:19:10.529Z,102198.80
2023-04-15T06:21:38.292Z,102202.00
2023-04-15T06:24:08.083Z,102197.40
2023-04-15T06:26:36.002Z,102200.00
2023-04-15T06:29:02.985Z,102199.20
2023-04-15T06:31:31.324Z,102200.80
2023-04-15T06:34:00.229Z,102199.00
2023-04-15T06:36:27.420Z,102206.40
2023-04-15T06:38:55.445Z,102205.00
2023-04-15T06:41:23.654Z,102207.40
2023-04-15T06:43:50.829Z,102203.20
2023-04-15T06:46:18.047Z,102205.40
2023-04-15T06:48:45.206Z,102210.20
2023-04-15T06:51:12.123Z,102212.20
2023-04-15T06:53:41.651Z,102216.40
2023-04-15T06:56:10.334Z,102219.40
2023-04-15T06:58:36.772Z,102228.00
2023-04-15T07:01:04.814Z,102223.00
2023-04-15T07:03:32.950Z,102229.20
2023-04-15T07:06:02.387Z,102231.60
2023-04-15T07:08:30.056Z,102232.60
2023-04-15T07:10:57.888Z,102242.60
2023-04-15T07:13:24.533Z,102243.60
2023-04-15T07:15:51.952Z,102242.40
2023-04-15T07:18:19.868Z,102243.40
2023-04-15T07:20:48.274Z,102241.00
2023-04-15T07:23:30.091Z,102243.40
2023-04-15T07:25:59.701Z,102248.80
2023-04-15T07:28:26.750Z,102245.80
2023-04-15T07:30:53.328Z,102253.80
2023-04-15T07:33:20.529Z,102248.80
2023-04-15T07:35:47.108Z,102252.40
2023-04-15T07:38:14.196Z,102250.80
2023-04-15T07:40:44.702Z,102256.00
2023-04-15T07:43:12.936Z,102257.60
2023-04-15T07:45:41.444Z,102254.60
2023-04-15T07:48:08.008Z,102256.00
2023-04-15T07:50:36.277Z,102256.40
2023-04-15T07:53:03.070Z,102258.40
2023-04-15T07:55:30.772Z,102262.00
2023-04-15T07:57:57.265Z,102262.80
2023-04-15T08:00:26.270Z,102267.40
2023-04-15T08:02:54.362Z,102271.60
2023-04-15T08:05:21.613Z,102278.80
2023-04-15T08:07:48.121Z,102278.60
2023-04-15T08:10:17.292Z,102274.80
2023-04-15T08:12:48.708Z,102272.80
2023-04-15T08:15:17.786Z,102279.00
2023-04-15T08:17:44.720Z,102279.00
2023-04-15T08:20:12.722Z,102280.80
2023-04-15T08:22:39.301Z,102285.40
2023-04-15T08:25:08.523Z,102285.00
2023-04-15T08:27:35.598Z,102279.40
2023-04-15T08:30:04.636Z,102284.00
2023-04-15T08:32:33.359Z,102286.40
2023-04-15T08:35:01.122Z,102284.40
2023-04-15T08:37:29.233Z,102288.80
2023-04-15T08:39:57.193Z,102288.00
2023-04-15T08:42:38.639Z,102287.20
2023-04-15T08:45:09.103Z,102291.80
2023-04-15T08:47:39.635Z,102288.20
2023-04-15T08:50:11.436Z,102289.00
2023-04-15T08:52:41.921Z,102290.40
2023-04-15T08:55:10.924Z,102291.60
2023-04-15T08:57:39.343Z,102292.80
2023-04-15T09:00:08.789Z,102295.20
2023-04-15T09:02:36.188Z,102298.60
2023-04-15T09:05:06.970Z,102299.00
2023-04-15T09:07:36.212Z,102298.00
2023-04-15T09:10:17.898Z,102302.40
2023-04-15T09:12:44.676Z,102306.80
2023-04-15T09:15:20.310Z,102299.60
2023-04-15T09:17:50.393Z,102310.80
2023-04-15T09:20:22.500Z,102314.80
2023-04-15T09:22:52.656Z,102314.60
2023-04-15T09:25:22.446Z,102318.80
2023-04-15T09:27:59.102Z,102319.00
2023-04-15T09:30:29.440Z,102323.80
2023-04-15T09:32:59.404Z,102320.00
2023-04-15T09:35:28.209Z,102319.20
2023-04-15T09:38:09.612Z,102318.20
2023-04-15T09:40:45.174Z,102316.20
2023-04-15T09:43:16.135Z,102317.80
2023-04-15T09:45:53.977Z,102319.40
2023-04-15T09:48:32.441Z,102319.00
2023-04-15T09:51:01.196Z,102315.80
2023-04-15T09:53:35.968Z,102323.80
2023-04-15T09:56:03.082Z,102324.40
2023-04-15T09:58:34.540Z,102328.80
2023-04-15T10:01:07.050Z,102331.60
2023-04-15T10:03:38.166Z,102333.40
2023-04-15T10:06:07.283Z,102333.00
2023-04-15T10:08:37.020Z,102335.80
2023-04-15T10:11:05.537Z,102337.00
2023-04-15T10:13:34.657Z,102342.60
2023-04-15T10:16:16.314Z,102342.60
2023-04-15T10:18:46.437Z,102343.00
2023-04-15T10:21:17.829Z,102349.60
2023-04-15T10:23:48.355Z,102342.80
2023-04-15T10:26:16.835Z,102344.20
2023-04-15T10:28:49.541Z,102345.60
2023-04-15T10:31:18.141Z,102345.80
2023-04-15T10:33:51.365Z,102341.00
2023-04-15T10:36:23.543Z,102345.20
2023-04-15T10:38:50.069Z,102335.00
2023-04-15T10:41:26.304Z,102339.20
2023-04-15T10:43:57.332Z,102341.80
2023-04-15T10:46:42.774Z,102347.20
2023-04-15T10:49:17.546Z,102348.40
2023-04-15T10:51:58.534Z,102351.40
2023-04-15T10:54:27.746Z,102356.20
2023-04-15T10:57:03.239Z,102358.00
2023-04-15T10:59:36.230Z,102359.40
2023-04-15T11:02:06.861Z,102360.40
2023-04-15T11:04:54.378Z,102362.20
2023-04-15T11:07:46.542Z,102367.00
2023-04-15T11:10:12.913Z,102363.80
2023-04-15T11:12:45.452Z,102366.60
2023-04-15T11:15:41.418Z,102367.20
2023-04-15T11:18:16.423Z,102372.60
2023-04-15T11:20:50.165Z,102374.40
2023-04-15T11:23:31.874Z,102377.80
2023-04-15T11:26:02.099Z,102373.40
2023-04-15T11:28:33.326Z,102375.80
2023-04-15T11:31:08.306Z,102375.60
2023-04-15T11:33:36.627Z,102375.60
2023-04-15T11:36:04.333Z,102382.00
2023-04-15T11:38:32.207Z,102384.80
2023-04-15T11:40:59.005Z,102389.40
2023-04-15T11:43:31.834Z,102391.40
2023-04-15T11:46:01.851Z,102392.80
2023-04-15T11:48:31.965Z,102393.20
2023-04-15T11:51:09.688Z,102395.60
2023-04-15T11:53:45.764Z,102394.60
2023-04-15T11:56:24.538Z,102396.40
2023-04-15T11:59:00.161Z,102392.40
2023-04-15T12:01:39.130Z,102390.20
2023-04-15T12:04:24.246Z,102390.80
2023-04-15T12:06:53.456Z,102391.60
2023-04-15T12:09:21.137Z,102391.00
2023-04-15T12:11:52.846Z,102387.60
2023-04-15T12:14:33.000Z,102392.40
2023-04-15T12:17:04.128Z,102385.00
2023-04-15T12:19:37.356Z,102390.00
2023-04-15T12:22:11.965Z,102388.60
2023-04-15T12:24:39.900Z,102390.00
2023-04-15T12:27:09.288Z,102393.40
2023-04-15T12:29:38.770Z,102398.00
2023-04-15T12:32:19.192Z,102397.60
2023-04-15T12:34:57.549Z,102400.00
2023-04-15T12:37:29.794Z,102400.80
2023-04-15T12:39:56.384Z,102409.00
2023-04-15T12:42:23.116Z,102408.00
2023-04-15T12:44:51.453Z,102406.40
2023-04-15T12:47:18.142Z,102407.80
2023-04-15T12:49:45.576Z,102412.20
2023-04-15T12:52:16.691Z,102412.20
2023-04-15T12:54:43.416Z,102416.80
2023-04-15T12:57:11.030Z,102416.20
2023-04-15T12:59:38.287Z,102415.00
2023-04-15T13:02:10.302Z,102415.00
2023-04-15T13:04:38.153Z,102417.20
2023-04-15T13:07:05.128Z,102412.60
2023-04-15T13:09:31.785Z,102410.80
2023-04-15T13:12:10.052Z,102417.80
2023-04-15T13:14:38.792Z,102412.40
2023-04-15T13:17:09.592Z,102414.40
2023-04-15T13:19:36.909Z,102413.20
2023-04-15T13:22:04.530Z,102413.20
2023-04-15T13:24:31.379Z,102413.20
2023-04-15T13:26:59.375Z,102412.00
2023-04-15T13:29:26.849Z,102412.00
2023-04-15T13:31:53.662Z,102413.20
2023-04-15T13:34:20.394Z,102406.20
2023-04-15T13:36:47.788Z,102410.80
2023-04-15T13:39:15.313Z,102409.40
2023-04-15T13:41:44.409Z,102402.80
2023-04-15T13:44:21.537Z,102405.00
2023-04-15T13:46:50.770Z,102413.40
2023-04-15T13:49:21.589Z,102407.00
2023-04-15T13:51:47.969Z,102409.60
2023-04-15T13:54:14.833Z,102408.00
2023-04-15T13:56:46.404Z,102411.40
2023-04-15T13:59:12.925Z,102408.40
2023-04-15T14:01:42.014Z,102412.20
2023-04-15T14:04:08.722Z,102409.80
2023-04-15T14:06:35.569Z,102412.80
2023-04-15T14:09:02.633Z,102415.00
2023-04-15T14:11:35.015Z,102418.40
2023-04-15T14:14:03.239Z,102420.40
2023-04-15T14:16:40.347Z,102418.40
2023-04-15T14:19:07.712Z,102419.80
2023-04-15T14:21:38.055Z,102426.60
2023-04-15T14:24:06.217Z,102428.40
2023-04-15T14:26:36.837Z,102425.80
2023-04-15T14:29:04.952Z,102427.60
2023-04-15T14:31:33.037Z,102426.60
2023-04-15T14:34:01.688Z,102428.40
2023-04-15T14:36:32.117Z,102428.00
2023-04-15T14:38:59.163Z,102431.60
2023-04-15T14:41:27.235Z,102433.00
2023-04-15T14:43:53.694Z,102431.80
2023-04-15T14:46:22.375Z,102432.20
2023-04-15T14:48:52.752Z,102428.60
2023-04-15T14:51:22.108Z,102431.20
2023-04-15T14:53:48.817Z,102433.20
2023-04-15T14:56:17.938Z,102434.20
2023-04-15T14:58:45.411Z,102437.20
2023-04-15T15:01:13.968Z,102439.40
2023-04-15T15:03:41.080Z,102435.80
2023-04-15T15:06:08.458Z,102439.20
2023-04-15T15:08:38.675Z,102435.00
2023-04-15T15:11:05.966Z,102437.20
2023-04-15T15:13:33.221Z,102438.00
2023-04-15T15:16:04.363Z,102442.00
2023-04-15T15:18:32.938Z,102439.80
2023-04-15T15:21:01.228Z,102443.40
2023-04-15T15:23:27.991Z,102447.00
2023-04-15T15:25:55.135Z,102446.20
2023-04-15T15:28:23.106Z,102448.20
2023-04-15T15:30:50.315Z,102454.00
2023-04-15T15:33:17.288Z,102453.60
2023-04-15T15:35:44.473Z,102457.80
2023-04-15T15:38:13.035Z,102453.80
2023-04-15T15:40:40.323Z,102454.40
2023-04-15T15:43:11.202Z,102457.00
2023-04-15T15:45:38.086Z,102459.20
2023-04-15T15:48:07.697Z,102457.00
2023-04-15T15:50:35.342Z,102460.40
2023-04-15T15:53:06.784Z,102460.40
2023-04-15T15:55:35.270Z,102461.80
2023-04-15T15:58:03.049Z,102459.20
2023-04-15T16:00:31.035Z,102461.20
2023-04-15T16:05:29.095Z,102465.60
2023-04-15T16:07:56.027Z,102468.40
2023-04-15T16:10:22.656Z,102467.60
2023-04-15T16:12:49.415Z,102469.20
2023-04-15T16:15:20.032Z,102469.60
2023-04-15T16:17:48.744Z,102472.40
2023-04-15T16:20:18.565Z,102477.20
2023-04-15T16:22:45.312Z,102481.80
2023-04-15T16:25:15.078Z,102475.60
2023-04-15T16:27:54.647Z,102482.00
2023-04-15T16:30:26.654Z,102485.60
2023-04-15T16:32:54.001Z,102490.80
2023-04-15T16:35:22.155Z,102491.80
2023-04-15T16:37:49.126Z,102493.60
2023-04-15T16:40:20.255Z,102493.40
2023-04-15T16:42:47.405Z,102492.80
2023-04-15T16:45:18.425Z,102493.00
2023-04-15T16:47:49.042Z,102491.00
2023-04-15T16:50:16.310Z,102487.80
2023-04-15T16:52:42.957Z,102492.60
2023-04-15T16:55:10.839Z,102485.20
2023-04-15T16:58:00.592Z,102485.20
2023-04-15T17:00:25.447Z,102483.60
2023-04-15T17:02:52.279Z,102483.80
2023-04-15T17:05:19.547Z,102479.00
2023-04-15T17:07:50.660Z,102482.80
2023-04-15T17:10:25.336Z,102485.80
2023-04-15T17:12:53.214Z,102486.80
2023-04-15T17:15:21.997Z,102486.20
2023-04-15T17:17:53.512Z,102485.60
2023-04-15T17:20:21.898Z,102485.60
2023-04-15T17:22:51.662Z,102490.60
2023-04-15T17:25:21.230Z,102490.20
2023-04-15T17:27:48.223Z,102489.20
2023-04-15T17:30:17.219Z,102485.00
2023-04-15T17:32:44.262Z,102487.00
2023-04-15T17:35:11.623Z,102489.80
2023-04-15T17:37:41.210Z,102490.60
2023-04-15T17:40:09.250Z,102489.80
2023-04-15T17:42:36.991Z,102491.80
2023-04-15T17:45:06.091Z,102489.20
2023-04-15T17:47:33.234Z,102488.20
2023-04-15T17:50:01.186Z,102495.80
2023-04-15T17:52:27.687Z,102492.00
2023-04-15T17:54:55.345Z,102493.40
2023-04-15T17:57:23.258Z,102494.60
2023-04-15T17:59:51.092Z,102497.60
2023-04-15T18:02:19.755Z,102499.40
2023-04-15T18:04:47.108Z,102509.80
2023-04-15T18:07:17.462Z,102513.40
2023-04-15T18:09:46.134Z,102513.60
2023-04-15T18:12:12.700Z,102513.60
2023-04-15T18:14:39.616Z,102510.60
2023-04-15T18:17:07.123Z,102514.40
2023-04-15T18:19:34.015Z,102523.20
2023-04-15T18:22:01.398Z,102521.20
2023-04-15T18:24:29.822Z,102521.40
2023-04-15T18:26:57.097Z,102523.80
2023-04-15T18:29:24.921Z,102521.80
2023-04-15T18:31:52.824Z,102525.20
2023-04-15T18:34:19.894Z,102526.00
2023-04-15T18:36:48.417Z,102529.20
2023-04-15T18:39:16.214Z,102528.80
2023-04-15T18:41:44.301Z,102533.20
2023-04-15T18:44:15.877Z,102532.20
2023-04-15T18:46:43.961Z,102533.40
2023-04-15T18:49:11.781Z,102535.00
2023-04-15T18:51:41.722Z,102538.20
2023-04-15T18:54:08.678Z,102538.00
2023-04-15T18:56:39.208Z,102540.80
2023-04-15T18:59:28.105Z,102542.80
2023-04-15T19:02:01.191Z,102548.60
2023-04-15T19:04:31.835Z,102550.80
2023-04-15T19:06:59.415Z,102552.00
2023-04-15T19:09:27.364Z,102551.40
2023-04-15T19:11:56.236Z,102557.00
2023-04-15T19:14:24.777Z,102554.00
2023-04-15T19:16:56.710Z,102555.40
2023-04-15T19:19:29.298Z,102555.60
2023-04-15T19:21:57.281Z,102560.60
2023-04-15T19:24:24.909Z,102567.80
2023-04-15T19:26:51.390Z,102571.20
2023-04-15T19:29:20.102Z,102568.40
2023-04-15T19:31:49.068Z,102565.40
2023-04-15T19:34:16.119Z,102570.20
2023-04-15T19:36:42.521Z,102566.80
2023-04-15T19:39:10.261Z,102565.40
2023-04-15T19:41:40.002Z,102569.40
2023-04-15T19:44:11.262Z,102563.80
2023-04-15T19:46:40.727Z,102569.20
2023-04-15T19:49:07.563Z,102565.00
2023-04-15T19:51:34.982Z,102565.80
2023-04-15T19:54:02.995Z,102570.60
2023-04-15T19:56:32.832Z,102574.80
2023-04-15T19:59:02.616Z,102576.40
2023-04-15T20:01:30.770Z,102578.60
2023-04-15T20:03:57.614Z,102578.80
2023-04-15T20:06:26.407Z,102579.40
2023-04-15T20:08:55.467Z,102582.60
2023-04-15T20:12:46.324Z,102582.40
2023-04-15T20:14:21.236Z,102582.40
2023-04-15T20:16:49.306Z,102589.60
2023-04-15T20:19:16.506Z,102587.60
2023-04-15T20:21:46.697Z,102591.20
2023-04-15T20:24:14.407Z,102587.80
2023-04-15T20:26:42.946Z,102591.40
2023-04-15T20:29:12.583Z,102592.80
2023-04-15T20:31:39.029Z,102588.20
2023-04-15T20:34:12.098Z,102583.00
2023-04-15T20:36:38.744Z,102583.60
2023-04-15T20:39:05.733Z,102581.60
2023-04-15T20:41:32.825Z,102581.40
2023-04-15T20:43:59.846Z,102581.00
2023-04-15T20:46:28.061Z,102579.00
2023-04-15T20:48:56.285Z,102573.80
2023-04-15T20:51:23.412Z,102577.60
2023-04-15T20:53:50.742Z,102578.00
2023-04-15T20:56:18.450Z,102577.20
2023-04-15T20:58:45.083Z,102580.20
2023-04-15T21:01:15.214Z,102578.20
2023-04-15T21:03:41.978Z,102577.60
2023-04-15T21:06:12.650Z,102580.40
2023-04-15T21:08:42.116Z,102580.20
2023-04-15T21:11:11.138Z,102582.80
2023-04-15T21:13:37.604Z,102583.60
2023-04-15T21:16:04.553Z,102581.20
2023-04-15T21:18:31.274Z,102587.60
2023-04-15T21:21:00.287Z,102588.80
2023-04-15T21:23:35.221Z,102589.40
2023-04-15T21:26:06.085Z,102586.20
2023-04-15T21:28:32.572Z,102585.40
2023-04-15T21:31:00.565Z,102588.60
2023-04-15T21:33:27.142Z,102590.40
2023-04-15T21:35:54.275Z,102590.00
2023-04-15T21:38:23.402Z,102592.60
2023-04-15T21:40:51.782Z,102592.20
2023-04-15T21:43:22.630Z,102595.40
2023-04-15T21:46:21.151Z,102597.40
2023-04-15T21:48:37.304Z,102597.60
2023-04-15T21:51:07.948Z,102596.20
2023-04-15T21:53:34.386Z,102597.60
2023-04-15T21:56:02.107Z,102598.60
2023-04-15T21:58:30.882Z,102605.20
2023-04-15T22:00:59.841Z,102600.20
2023-04-15T22:03:34.995Z,102605.00
2023-04-15T22:06:03.426Z,102604.60
2023-04-15T22:08:41.265Z,102606.00
2023-04-15T22:11:26.293Z,102609.20
2023-04-15T22:13:57.071Z,102606.00
2023-04-15T22:16:27.831Z,102607.00
2023-04-15T22:18:55.814Z,102608.00
2023-04-15T22:21:25.860Z,102605.60
2023-04-15T22:23:53.022Z,102609.60
2023-04-15T22:26:39.943Z,102612.80
2023-04-15T22:29:07.892Z,102618.20
2023-04-15T22:31:36.158Z,102618.00
2023-04-15T22:34:03.476Z,102620.40
2023-04-15T22:36:31.189Z,102624.00
2023-04-15T22:39:05.513Z,102623.20
2023-04-15T22:41:32.272Z,102628.00
2023-04-15T22:44:00.601Z,102629.00
2023-04-15T22:46:27.535Z,102633.00
2023-04-15T22:48:54.520Z,102626.20
2023-04-15T22:51:23.533Z,102631.80
2023-04-15T22:53:50.272Z,102634.80
2023-04-15T22:56:22.725Z,102631.80
2023-04-15T22:58:50.057Z,102633.60
2023-04-15T23:01:17.601Z,102636.40
2023-04-15T23:03:57.547Z,102636.80
2023-04-15T23:06:33.535Z,102632.60
2023-04-15T23:09:00.259Z,102635.80
2023-04-15T23:11:27.021Z,102634.20
2023-04-15T23:13:55.894Z,102639.20
2023-04-15T23:16:25.010Z,102637.40
2023-04-15T23:18:53.088Z,102636.20
2023-04-15T23:21:20.346Z,102634.80
2023-04-15T23:23:47.064Z,102629.80
2023-04-15T23:26:13.587Z,102636.40
2023-04-15T23:28:40.481Z,102638.60
2023-04-15T23:31:07.402Z,102639.60
2023-04-15T23:33:34.091Z,102632.40
2023-04-15T23:36:00.712Z,102638.60
2023-04-15T23:38:27.648Z,102639.80
2023-04-15T23:40:55.911Z,102640.60
2023-04-15T23:43:25.323Z,102639.60
2023-04-15T23:45:52.189Z,102637.00
2023-04-15T23:48:18.673Z,102635.00
2023-04-15T23:50:45.857Z,102638.40
2023-04-15T23:53:12.370Z,102642.80
2023-04-15T23:55:40.147Z,102643.60
2023-04-15T23:58:08.757Z,102640.60
